AIRPORT_AIRPORT_METAR
METAR FOR ESSV
ADDS - METARS form results

(2310 UTC 16 April 2021)
Data provider http://aviationweather.gov/metar/data/
 
METAR text: ESSV 162250Z AUTO 05010KT 9999 OVC084/// 05/00 Q1025
Conditions at: ESSV (VISBY AIRPORT , SE) observed 2250 UTC 16 April 2021
Temperature: 5.0°C (41°F)
Dewpoint: 0.0°C (32°F) [RH = 70%]
Pressure (altimeter): 30.27 inches Hg (1025.0 mb)
Winds: from the NE (50 degrees) at 12 MPH (10 knots; 5.1 m/s)
Visibility: 6 or more miles (10+ km)
Ceiling: 8400 feet AGL
Clouds: overcast cloud deck at 8400 feet AGL
Weather: no significant weather observed at this time

METAR text: ESSV 162220Z AUTO 05009KT 9999 BKN070/// OVC092/// 05/00 Q1025
Conditions at: ESSV (VISBY AIRPORT , SE) observed 2220 UTC 16 April 2021
Temperature: 5.0°C (41°F)
Dewpoint: 0.0°C (32°F) [RH = 70%]
Pressure (altimeter): 30.27 inches Hg (1025.0 mb)
Winds: from the NE (50 degrees) at 10 MPH (9 knots; 4.6 m/s)
Visibility: 6 or more miles (10+ km)
Ceiling: 7000 feet AGL
Clouds: broken clouds at 7000 feet AGL
overcast cloud deck at 9200 feet AGL
Weather: no significant weather observed at this time

Forecast for: ESSV (VISBY AIRPORT , SE)
Text: TAF ESSV 161730Z 1618/1620 04016KT CAVOK
Forecast period: 1800 to 2000 UTC 16 April 2021
Forecast type: FROM: standard forecast or significant change
Winds: from the NE (40 degrees) at 18 MPH (16 knots; 8.2 m/s)
Visibility: 6 or more miles (10+ km)
Ceiling: unknown
Clouds: missing
Weather: NSW  (no significant weather)

 AIRPORT_AIRPORT_MAP

 AIRPORT_RUNWAY_INFO
AIRPORT_RUNWAY 03 AIRPORT_RUNWAY_LENGTH 6562 ft AIRPORT_RUNWAY_WIDTH 148 ft
AIRPORT_RUNWAY_ELEVATION 140 ft AIRPORT_RUNWAY_THRESHOLD 0 ft AIRPORT_RUNWAY_HEADING 21
AIRPORT_RUNWAY 21 AIRPORT_RUNWAY_LENGTH 6562 ft AIRPORT_RUNWAY_WIDTH 148 ft
AIRPORT_RUNWAY_ELEVATION 136 ft AIRPORT_RUNWAY_THRESHOLD 0 ft AIRPORT_RUNWAY_HEADING 201
AIRPORT_RUNWAY 10 AIRPORT_RUNWAY_LENGTH 3611 ft AIRPORT_RUNWAY_WIDTH 131 ft
AIRPORT_RUNWAY_ELEVATION 142 ft AIRPORT_RUNWAY_THRESHOLD 0 ft AIRPORT_RUNWAY_HEADING 101
AIRPORT_RUNWAY 28 AIRPORT_RUNWAY_LENGTH 3611 ft AIRPORT_RUNWAY_WIDTH 131 ft
AIRPORT_RUNWAY_ELEVATION 164 ft AIRPORT_RUNWAY_THRESHOLD 0 ft AIRPORT_RUNWAY_HEADING 281

 AIRPORT_AIRPORT_FREQUENCIES
AIRPORT_AIRPORT_NAVAIDS_TYPE ARR AIRPORT_AIRPORT_NAVAIDS_NAME CON AIRPORT_AIRPORT_NAVAIDS_FREQ 126.15 MHZ
AIRPORT_AIRPORT_NAVAIDS_TYPE TWR AIRPORT_AIRPORT_NAVAIDS_NAME TWR AIRPORT_AIRPORT_NAVAIDS_FREQ 120.3 MHZ

 AIRPORT_AIRPORT_NAVAIDS
AIRPORT_AIRPORT_NAVAIDS_TYPE VOR-DME AIRPORT_AIRPORT_NAVAIDS_NAME Visby AIRPORT_AIRPORT_NAVAIDS_FREQ 115100 KHZ



Copyright © 2005-2020 - Virtuel Air Alsace - Tous droits réservés